Time;durP1;ratioP1;P1;durP2;ratioP2;P2;SDS_P1;SDS_P2;PMS_P1;PMS_P2;Temp;Humidity;BMP_temperature;BMP_pressure;BME280_temperature;BME280_humidity;BME280_pressure;Samples;Min_cycle;Max_cycle;Signal;HPM_P1;HPM_P2
2022/04/09 00:00:13;;;;;;;;;10.00;8.00;;;;;;;;5004259;28;51459;-61
2022/04/09 00:02:38;;;;;;;;;9.25;6.50;;;;;;;;5001376;28;52115;-61
2022/04/09 00:05:05;;;;;;;;;10.50;10.00;;;;;;;;5004670;28;51080;-61
2022/04/09 00:07:30;;;;;;;;;8.25;6.50;;;;;;;;5003789;28;51174;-61
2022/04/09 00:09:55;;;;;;;;;5.75;5.75;;;;;;;;5006037;28;51309;-61
2022/04/09 00:12:21;;;;;;;;;9.00;8.25;;;;;;;;5002901;28;52276;-61
2022/04/09 00:14:46;;;;;;;;;8.25;7.50;;;;;;;;5007818;28;51442;-61
2022/04/09 00:17:11;;;;;;;;;9.00;8.00;;;;;;;;5000712;28;51120;-62
2022/04/09 00:19:36;;;;;;;;;12.00;10.00;;;;;;;;5006577;28;51157;-62
2022/04/09 00:22:03;;;;;;;;;23.25;19.75;;;;;;;;4999768;28;52037;-61
2022/04/09 00:24:28;;;;;;;;;16.00;14.50;;;;;;;;5001605;28;51500;-62
2022/04/09 00:26:53;;;;;;;;;8.50;8.00;;;;;;;;5000597;28;52250;-62
2022/04/09 00:29:18;;;;;;;;;7.75;7.00;;;;;;;;5002734;28;51019;-63
2022/04/09 00:31:44;;;;;;;;;19.00;16.50;;;;;;;;5004699;28;52631;-63
2022/04/09 00:34:09;;;;;;;;;15.50;15.25;;;;;;;;5004503;28;52415;-62
2022/04/09 00:36:34;;;;;;;;;6.25;6.25;;;;;;;;5001310;28;51343;-62
2022/04/09 00:39:00;;;;;;;;;5.50;5.00;;;;;;;;5004578;28;51294;-60
2022/04/09 00:41:25;;;;;;;;;6.75;6.75;;;;;;;;5004838;28;51710;-61
2022/04/09 00:43:50;;;;;;;;;7.25;6.50;;;;;;;;5001195;28;51400;-61
2022/04/09 00:46:16;;;;;;;;;5.00;3.50;;;;;;;;5001111;28;51143;-61
2022/04/09 00:48:42;;;;;;;;;3.00;3.00;;;;;;;;5000293;28;50854;-60
2022/04/09 00:51:07;;;;;;;;;8.75;7.75;;;;;;;;5005378;28;53521;-61
2022/04/09 00:53:37;;;;;;;;;6.50;5.75;;;;;;;;5001347;28;51072;-60
2022/04/09 00:56:20;;;;;;;;;82.25;63.75;;;;;;;;5004378;28;51087;-60
2022/04/09 00:58:55;;;;;;;;;9.00;8.25;;;;;;;;5004133;28;51394;-60
2022/04/09 01:01:22;;;;;;;;;9.50;7.50;;;;;;;;4999706;28;51184;-60
2022/04/09 01:03:48;;;;;;;;;11.25;10.00;;;;;;;;5002121;28;51312;-62
2022/04/09 01:06:13;;;;;;;;;3.00;3.00;;;;;;;;5001943;28;51079;-62
2022/04/09 01:08:38;;;;;;;;;9.75;7.25;;;;;;;;5004919;28;51064;-62
2022/04/09 01:11:04;;;;;;;;;6.25;6.25;;;;;;;;5003335;28;52742;-61
2022/04/09 01:13:29;;;;;;;;;8.50;8.50;;;;;;;;4999027;28;51083;-62
2022/04/09 01:15:55;;;;;;;;;7.00;7.00;;;;;;;;4998146;28;52332;-64
2022/04/09 01:18:20;;;;;;;;;7.00;7.00;;;;;;;;5000747;28;52284;-63
2022/04/09 01:20:46;;;;;;;;;19.00;19.00;;;;;;;;4999281;28;51732;-63
2022/04/09 01:23:11;;;;;;;;;7.00;7.00;;;;;;;;5002568;28;51342;-62
2022/04/09 01:25:37;;;;;;;;;7.25;6.00;;;;;;;;5000526;28;51461;-62
2022/04/09 01:28:03;;;;;;;;;10.00;8.00;;;;;;;;5001229;28;52393;-61
2022/04/09 01:30:28;;;;;;;;;6.75;5.50;;;;;;;;4998781;28;52850;-62
2022/04/09 01:32:53;;;;;;;;;5.00;5.00;;;;;;;;5001599;28;51216;-61
2022/04/09 01:35:18;;;;;;;;;5.00;5.00;;;;;;;;5001837;28;52076;-61
2022/04/09 01:37:44;;;;;;;;;7.25;6.00;;;;;;;;4999927;28;51310;-62
2022/04/09 01:40:09;;;;;;;;;5.25;5.25;;;;;;;;5001929;28;52495;-62
2022/04/09 01:42:36;;;;;;;;;6.00;6.00;;;;;;;;4998450;28;52089;-63
2022/04/09 01:45:02;;;;;;;;;6.75;6.00;;;;;;;;5001068;28;51175;-63
2022/04/09 01:47:27;;;;;;;;;5.50;3.75;;;;;;;;5000517;28;51369;-62
2022/04/09 01:49:52;;;;;;;;;3.00;3.00;;;;;;;;4997952;28;52103;-63
2022/04/09 01:52:17;;;;;;;;;2.50;2.50;;;;;;;;4996815;28;52447;-62
2022/04/09 01:54:43;;;;;;;;;2.00;2.00;;;;;;;;4999117;28;51286;-61
2022/04/09 01:57:08;;;;;;;;;2.00;2.00;;;;;;;;4997846;28;51529;-61
2022/04/09 01:59:33;;;;;;;;;2.00;2.00;;;;;;;;4997108;28;51788;-63
2022/04/09 02:01:58;;;;;;;;;5.00;3.00;;;;;;;;4997407;28;51095;-63
2022/04/09 02:04:23;;;;;;;;;3.50;3.50;;;;;;;;4999382;28;51058;-62
2022/04/09 02:06:49;;;;;;;;;4.00;3.00;;;;;;;;4997771;28;51115;-62
2022/04/09 02:09:15;;;;;;;;;3.00;2.25;;;;;;;;4999399;28;51154;-62
2022/04/09 02:11:41;;;;;;;;;6.00;5.50;;;;;;;;4997332;28;51789;-61
2022/04/09 02:14:10;;;;;;;;;6.75;5.00;;;;;;;;4996225;28;51292;-62
2022/04/09 02:16:39;;;;;;;;;5.00;5.00;;;;;;;;4999007;28;51138;-62
2022/04/09 02:19:04;;;;;;;;;3.00;2.50;;;;;;;;4998442;28;51971;-62
2022/04/09 02:21:29;;;;;;;;;5.00;5.00;;;;;;;;4998571;28;51103;-63
2022/04/09 02:23:55;;;;;;;;;5.50;5.00;;;;;;;;5000571;28;51056;-63
2022/04/09 02:26:20;;;;;;;;;7.00;6.00;;;;;;;;4995131;28;52098;-63
2022/04/09 02:28:49;;;;;;;;;5.50;5.50;;;;;;;;4994953;28;52025;-62
2022/04/09 02:31:18;;;;;;;;;6.25;6.00;;;;;;;;4998236;28;51213;-62
2022/04/09 02:33:44;;;;;;;;;4.00;4.00;;;;;;;;4997577;28;51168;-62
2022/04/09 02:36:12;;;;;;;;;6.50;6.00;;;;;;;;4999555;28;51308;-62
2022/04/09 02:38:37;;;;;;;;;6.75;6.25;;;;;;;;4997979;28;52850;-62
2022/04/09 02:41:02;;;;;;;;;6.75;5.25;;;;;;;;4997984;28;51064;-62
2022/04/09 02:43:27;;;;;;;;;5.50;5.00;;;;;;;;4999173;28;51123;-62
2022/04/09 02:45:52;;;;;;;;;8.00;8.00;;;;;;;;4997651;28;51478;-62
2022/04/09 02:48:18;;;;;;;;;7.00;6.00;;;;;;;;4999144;28;51269;-62
2022/04/09 02:50:43;;;;;;;;;10.25;8.00;;;;;;;;4997628;28;51100;-63
2022/04/09 02:53:11;;;;;;;;;9.00;8.50;;;;;;;;4997815;28;51193;-63
2022/04/09 02:55:36;;;;;;;;;6.50;6.50;;;;;;;;4999778;28;51487;-63
2022/04/09 02:58:02;;;;;;;;;7.75;7.75;;;;;;;;4998307;28;52313;-62
2022/04/09 03:00:27;;;;;;;;;8.00;7.00;;;;;;;;4998337;28;51082;-62
2022/04/09 03:02:52;;;;;;;;;6.00;6.00;;;;;;;;4997700;28;51099;-61
2022/04/09 03:05:18;;;;;;;;;8.00;8.00;;;;;;;;4996664;28;51403;-63
2022/04/09 03:07:43;;;;;;;;;7.25;7.00;;;;;;;;4996479;28;54181;-63
2022/04/09 03:10:08;;;;;;;;;6.50;6.00;;;;;;;;4998577;28;51179;-63
2022/04/09 03:12:33;;;;;;;;;7.50;6.25;;;;;;;;5001188;28;51158;-64
2022/04/09 03:14:58;;;;;;;;;6.00;5.00;;;;;;;;5001797;28;51267;-62
2022/04/09 03:17:24;;;;;;;;;5.75;5.75;;;;;;;;5001967;28;51829;-63
2022/04/09 03:19:49;;;;;;;;;8.00;7.00;;;;;;;;5001275;28;51106;-63
2022/04/09 03:22:14;;;;;;;;;6.75;6.75;;;;;;;;5003449;28;51110;-62
2022/04/09 03:24:39;;;;;;;;;5.75;5.25;;;;;;;;4998976;28;51390;-63
2022/04/09 03:27:05;;;;;;;;;4.00;3.00;;;;;;;;5000035;28;52080;-63
2022/04/09 03:29:30;;;;;;;;;7.50;7.50;;;;;;;;4998883;28;52443;-62
2022/04/09 03:31:56;;;;;;;;;6.00;5.75;;;;;;;;5000831;28;51203;-62
2022/04/09 03:34:21;;;;;;;;;6.25;6.25;;;;;;;;5004031;28;51326;-62
2022/04/09 03:36:46;;;;;;;;;10.50;10.50;;;;;;;;5001883;28;51086;-62
2022/04/09 03:39:11;;;;;;;;;10.00;10.00;;;;;;;;5004482;28;51131;-63
2022/04/09 03:41:37;;;;;;;;;5.00;5.00;;;;;;;;5005157;28;51290;-63
2022/04/09 03:44:02;;;;;;;;;9.75;8.75;;;;;;;;5001669;28;51604;-63
2022/04/09 03:46:27;;;;;;;;;6.25;5.75;;;;;;;;5004641;28;51115;-62
2022/04/09 03:48:52;;;;;;;;;2.75;2.75;;;;;;;;5006654;28;51060;-63
2022/04/09 03:51:18;;;;;;;;;5.50;5.50;;;;;;;;5003043;28;51258;-64
2022/04/09 03:53:43;;;;;;;;;2.25;1.50;;;;;;;;5005088;28;51257;-62
2022/04/09 03:56:08;;;;;;;;;3.00;3.00;;;;;;;;5000030;28;52203;-63
2022/04/09 03:58:36;;;;;;;;;5.50;5.00;;;;;;;;5005491;28;51128;-63
2022/04/09 04:01:01;;;;;;;;;4.00;4.00;;;;;;;;5002063;28;51260;-63
2022/04/09 04:03:28;;;;;;;;;4.50;4.50;;;;;;;;5003867;28;51370;-63
2022/04/09 04:05:54;;;;;;;;;5.00;5.00;;;;;;;;5001073;28;51800;-63
2022/04/09 04:08:19;;;;;;;;;3.50;2.25;;;;;;;;5003721;28;51425;-63
2022/04/09 04:10:45;;;;;;;;;4.00;2.25;;;;;;;;5002573;28;51153;-63
2022/04/09 04:13:11;;;;;;;;;2.50;2.50;;;;;;;;5001219;28;51183;-62
2022/04/09 04:15:36;;;;;;;;;1.00;1.00;;;;;;;;5002346;28;51068;-62
2022/04/09 04:18:02;;;;;;;;;3.00;3.00;;;;;;;;5000261;28;51043;-62
2022/04/09 04:20:27;;;;;;;;;1.50;1.50;;;;;;;;5003538;28;52140;-63
2022/04/09 04:22:53;;;;;;;;;5.25;3.00;;;;;;;;5002433;28;51353;-62
2022/04/09 04:25:18;;;;;;;;;2.00;2.00;;;;;;;;5003575;28;51197;-62
2022/04/09 04:27:46;;;;;;;;;2.00;1.50;;;;;;;;5004674;28;52566;-63
2022/04/09 04:30:12;;;;;;;;;5.25;4.00;;;;;;;;5003439;28;51188;-62
2022/04/09 04:32:37;;;;;;;;;5.00;4.00;;;;;;;;5004990;28;51094;-62
2022/04/09 04:35:02;;;;;;;;;4.00;4.00;;;;;;;;5003736;28;51670;-62
2022/04/09 04:37:42;;;;;;;;;5.75;5.00;;;;;;;;5006163;28;51159;-62
2022/04/09 04:40:08;;;;;;;;;5.00;5.00;;;;;;;;5000923;28;51027;-62
2022/04/09 04:42:33;;;;;;;;;6.25;6.25;;;;;;;;5001893;28;51272;-62
2022/04/09 04:44:58;;;;;;;;;5.00;4.00;;;;;;;;5003531;28;51446;-62
2022/04/09 04:47:23;;;;;;;;;5.75;5.75;;;;;;;;5001268;28;51172;-64
2022/04/09 04:49:49;;;;;;;;;3.00;3.00;;;;;;;;5001764;28;51226;-62
2022/04/09 04:52:14;;;;;;;;;5.75;5.75;;;;;;;;5001501;28;51209;-61
2022/04/09 04:54:39;;;;;;;;;6.00;5.50;;;;;;;;5004671;28;51983;-62
2022/04/09 04:57:04;;;;;;;;;5.75;5.75;;;;;;;;5001790;28;51387;-63
2022/04/09 04:59:30;;;;;;;;;5.50;5.00;;;;;;;;5005797;28;51099;-63
2022/04/09 05:01:55;;;;;;;;;6.25;5.75;;;;;;;;5001433;28;52216;-62
2022/04/09 05:04:20;;;;;;;;;11.00;10.00;;;;;;;;5000856;28;51201;-62
2022/04/09 05:06:45;;;;;;;;;6.00;5.00;;;;;;;;5001801;28;51209;-62
2022/04/09 05:09:13;;;;;;;;;9.75;9.75;;;;;;;;5003333;28;51323;-63
2022/04/09 05:11:39;;;;;;;;;6.50;6.00;;;;;;;;5000343;28;51047;-62
2022/04/09 05:14:04;;;;;;;;;7.00;7.00;;;;;;;;5001532;28;51749;-61
2022/04/09 05:16:29;;;;;;;;;11.00;10.00;;;;;;;;5001961;28;51079;-62
2022/04/09 05:18:54;;;;;;;;;7.75;7.00;;;;;;;;5004723;28;51203;-62
2022/04/09 05:21:20;;;;;;;;;10.00;8.25;;;;;;;;4999605;28;51128;-61
2022/04/09 05:23:45;;;;;;;;;7.75;7.00;;;;;;;;5003002;28;51165;-62
2022/04/09 05:26:10;;;;;;;;;10.75;10.00;;;;;;;;4999856;28;51096;-62
2022/04/09 05:28:35;;;;;;;;;10.00;8.25;;;;;;;;5002013;28;51288;-62
2022/04/09 05:31:02;;;;;;;;;8.00;7.50;;;;;;;;5003863;28;51254;-62
2022/04/09 05:33:28;;;;;;;;;11.00;8.00;;;;;;;;4998853;28;52025;-61
2022/04/09 05:35:54;;;;;;;;;10.25;10.00;;;;;;;;5002468;28;51174;-64
2022/04/09 05:38:19;;;;;;;;;10.25;10.25;;;;;;;;4999389;28;51723;-61
2022/04/09 05:40:44;;;;;;;;;9.25;8.25;;;;;;;;5004342;28;51126;-61
2022/04/09 05:43:10;;;;;;;;;9.75;9.75;;;;;;;;5000399;28;51268;-62
2022/04/09 05:45:36;;;;;;;;;10.75;10.75;;;;;;;;5002660;28;51182;-63
2022/04/09 05:48:02;;;;;;;;;10.25;10.25;;;;;;;;5000107;28;51186;-62
2022/04/09 05:50:27;;;;;;;;;8.25;8.25;;;;;;;;5002591;28;51345;-62
2022/04/09 05:52:54;;;;;;;;;12.25;10.25;;;;;;;;5000120;28;51998;-62
2022/04/09 05:55:19;;;;;;;;;13.75;12.50;;;;;;;;5004210;28;51025;-62
2022/04/09 05:57:44;;;;;;;;;10.50;10.50;;;;;;;;5000118;28;50875;-62
2022/04/09 06:00:10;;;;;;;;;8.25;7.75;;;;;;;;5005209;28;52025;-62
2022/04/09 06:02:37;;;;;;;;;9.50;6.75;;;;;;;;4999004;28;53214;-62
2022/04/09 06:05:02;;;;;;;;;11.50;11.00;;;;;;;;5002420;28;52350;-62
2022/04/09 06:07:28;;;;;;;;;15.00;11.00;;;;;;;;4996206;28;51044;-62
2022/04/09 06:09:53;;;;;;;;;7.00;7.00;;;;;;;;5002760;28;51250;-61
2022/04/09 06:12:18;;;;;;;;;7.75;7.75;;;;;;;;5000873;28;51731;-62
2022/04/09 06:14:44;;;;;;;;;10.00;9.50;;;;;;;;5003083;28;51249;-62
2022/04/09 06:17:09;;;;;;;;;11.00;10.75;;;;;;;;5000935;28;51209;-62
2022/04/09 06:19:35;;;;;;;;;11.25;11.00;;;;;;;;5001712;28;52119;-63
2022/04/09 06:22:01;;;;;;;;;11.00;11.00;;;;;;;;5001591;28;51080;-63
2022/04/09 06:24:26;;;;;;;;;7.50;7.00;;;;;;;;4999037;28;51167;-63
2022/04/09 06:26:51;;;;;;;;;9.00;7.75;;;;;;;;4999147;28;52435;-63
2022/04/09 06:29:16;;;;;;;;;9.25;8.25;;;;;;;;5000572;28;51180;-62
2022/04/09 06:31:42;;;;;;;;;10.00;10.00;;;;;;;;4995427;28;52303;-63
2022/04/09 06:34:07;;;;;;;;;12.00;11.00;;;;;;;;5000624;28;51159;-61
2022/04/09 06:36:32;;;;;;;;;16.50;14.75;;;;;;;;4999167;28;51103;-62
2022/04/09 06:39:00;;;;;;;;;10.50;10.50;;;;;;;;5000842;28;51138;-63
2022/04/09 06:41:26;;;;;;;;;10.75;10.00;;;;;;;;4999397;28;52222;-64
2022/04/09 06:43:52;;;;;;;;;10.50;9.25;;;;;;;;4999510;28;51212;-62
2022/04/09 06:46:18;;;;;;;;;9.75;9.75;;;;;;;;5003531;28;51250;-63
2022/04/09 06:48:44;;;;;;;;;17.25;15.75;;;;;;;;5007500;28;51119;-62
2022/04/09 06:51:09;;;;;;;;;8.00;8.00;;;;;;;;5006834;28;52650;-62
2022/04/09 06:53:34;;;;;;;;;9.00;8.00;;;;;;;;5008899;28;52128;-62
2022/04/09 06:55:59;;;;;;;;;9.75;9.25;;;;;;;;5005336;28;51531;-63
2022/04/09 06:58:25;;;;;;;;;15.00;12.25;;;;;;;;5002856;28;52177;-63
2022/04/09 07:00:50;;;;;;;;;9.25;9.25;;;;;;;;4995903;28;52104;-63
2022/04/09 07:03:15;;;;;;;;;8.00;8.00;;;;;;;;5004215;28;51303;-63
2022/04/09 07:05:41;;;;;;;;;8.50;7.50;;;;;;;;5006706;28;51280;-63
2022/04/09 07:08:08;;;;;;;;;8.00;8.00;;;;;;;;5000801;28;51382;-62
2022/04/09 07:10:33;;;;;;;;;5.25;5.25;;;;;;;;5006458;28;52200;-63
2022/04/09 07:12:58;;;;;;;;;7.00;7.00;;;;;;;;5001241;28;51225;-63
2022/04/09 07:15:23;;;;;;;;;6.75;6.75;;;;;;;;5008011;28;51139;-63
2022/04/09 07:17:49;;;;;;;;;7.25;7.00;;;;;;;;4998075;28;51158;-63
2022/04/09 07:20:14;;;;;;;;;5.50;4.25;;;;;;;;4995839;28;52722;-62
2022/04/09 07:22:40;;;;;;;;;9.25;7.50;;;;;;;;5000896;28;52400;-63
2022/04/09 07:25:06;;;;;;;;;9.50;7.00;;;;;;;;4990823;28;51201;-63
2022/04/09 07:27:38;;;;;;;;;9.00;7.75;;;;;;;;4998170;28;51263;-63
2022/04/09 07:30:04;;;;;;;;;6.75;6.75;;;;;;;;5000774;28;52153;-63
2022/04/09 07:32:29;;;;;;;;;8.75;8.00;;;;;;;;5005117;28;51072;-63
2022/04/09 07:34:54;;;;;;;;;9.00;9.00;;;;;;;;5003952;28;51192;-61
2022/04/09 07:37:20;;;;;;;;;8.50;8.50;;;;;;;;5006099;28;51954;-64
2022/04/09 07:39:45;;;;;;;;;8.00;8.00;;;;;;;;5003860;28;51304;-64
2022/04/09 07:42:10;;;;;;;;;9.25;8.50;;;;;;;;5003565;28;51123;-64
2022/04/09 07:44:35;;;;;;;;;7.50;7.00;;;;;;;;5005872;28;51328;-62
2022/04/09 07:47:01;;;;;;;;;8.00;8.00;;;;;;;;5003105;28;51218;-62
2022/04/09 07:49:26;;;;;;;;;7.00;7.00;;;;;;;;5002828;28;51911;-63
2022/04/09 07:51:51;;;;;;;;;12.75;12.25;;;;;;;;5004757;28;51122;-62
2022/04/09 07:54:16;;;;;;;;;11.00;9.25;;;;;;;;4999962;28;51081;-61
2022/04/09 07:56:41;;;;;;;;;12.50;11.75;;;;;;;;5008105;28;51140;-62
2022/04/09 07:59:07;;;;;;;;;7.75;7.50;;;;;;;;5012014;28;51792;-63
2022/04/09 08:01:32;;;;;;;;;6.25;6.25;;;;;;;;5005154;28;51134;-62
2022/04/09 08:03:57;;;;;;;;;11.25;9.00;;;;;;;;5013222;28;50949;-63
2022/04/09 08:06:22;;;;;;;;;11.25;10.50;;;;;;;;5011940;28;51077;-63
2022/04/09 08:08:48;;;;;;;;;13.00;11.50;;;;;;;;5008838;28;54214;-63
2022/04/09 08:11:13;;;;;;;;;11.25;10.00;;;;;;;;5012641;28;51732;-64
2022/04/09 08:13:41;;;;;;;;;11.00;10.50;;;;;;;;5009059;28;51382;-65
2022/04/09 08:16:06;;;;;;;;;9.00;9.00;;;;;;;;5009971;28;51178;-64
2022/04/09 08:18:31;;;;;;;;;8.25;8.25;;;;;;;;5006047;28;51964;-64
2022/04/09 08:20:56;;;;;;;;;8.25;8.25;;;;;;;;5003713;28;51099;-63
2022/04/09 08:23:22;;;;;;;;;11.25;9.00;;;;;;;;5010708;28;50981;-64
2022/04/09 08:25:48;;;;;;;;;12.00;10.50;;;;;;;;5013396;28;51081;-63
2022/04/09 08:28:13;;;;;;;;;97.75;82.25;;;;;;;;5012501;28;51317;-64
2022/04/09 08:30:41;;;;;;;;;8.00;7.25;;;;;;;;5005534;28;51011;-64
2022/04/09 08:33:07;;;;;;;;;7.00;7.00;;;;;;;;5010900;28;51067;-63
2022/04/09 08:35:32;;;;;;;;;12.00;9.50;;;;;;;;4999873;28;50855;-62
2022/04/09 08:37:58;;;;;;;;;8.00;7.75;;;;;;;;5009645;28;52470;-63
2022/04/09 08:40:23;;;;;;;;;8.00;8.00;;;;;;;;5004511;28;51519;-62
2022/04/09 08:42:49;;;;;;;;;9.00;8.75;;;;;;;;5011088;28;51181;-63
2022/04/09 08:45:15;;;;;;;;;10.25;10.25;;;;;;;;5011376;28;51279;-62
2022/04/09 08:47:42;;;;;;;;;9.25;9.25;;;;;;;;5010779;28;52293;-63
2022/04/09 08:50:09;;;;;;;;;11.25;9.75;;;;;;;;5011560;28;51141;-62
2022/04/09 08:52:37;;;;;;;;;8.75;7.75;;;;;;;;5005855;28;51153;-63
2022/04/09 08:55:02;;;;;;;;;3.25;3.25;;;;;;;;4999805;28;51205;-63
2022/04/09 08:57:27;;;;;;;;;8.25;7.25;;;;;;;;5015087;28;52925;-63
2022/04/09 08:59:54;;;;;;;;;6.75;5.75;;;;;;;;5011528;28;51007;-63
2022/04/09 09:02:20;;;;;;;;;7.00;7.00;;;;;;;;5006407;28;51340;-62
2022/04/09 09:04:45;;;;;;;;;11.50;9.75;;;;;;;;5010370;28;51506;-63
2022/04/09 09:07:20;;;;;;;;;9.50;9.50;;;;;;;;5004024;28;52024;-63
2022/04/09 09:09:46;;;;;;;;;10.25;10.25;;;;;;;;4999517;28;51315;-63
2022/04/09 09:12:12;;;;;;;;;9.00;9.00;;;;;;;;5007415;28;50985;-66
2022/04/09 09:14:43;;;;;;;;;8.00;7.50;;;;;;;;5002664;28;51154;-64
2022/04/09 09:17:09;;;;;;;;;9.00;8.00;;;;;;;;5005265;28;52647;-63
2022/04/09 09:19:48;;;;;;;;;11.50;10.75;;;;;;;;5008146;28;51630;-62
2022/04/09 09:22:18;;;;;;;;;9.00;9.00;;;;;;;;5007825;28;51282;-63
2022/04/09 09:24:43;;;;;;;;;6.00;6.00;;;;;;;;5005296;28;51483;-63
2022/04/09 09:27:09;;;;;;;;;10.00;9.00;;;;;;;;5010115;28;51729;-63
2022/04/09 09:29:36;;;;;;;;;10.50;9.00;;;;;;;;4998131;28;51179;-64
2022/04/09 09:32:03;;;;;;;;;12.75;12.25;;;;;;;;5007740;28;51119;-63
2022/04/09 09:34:29;;;;;;;;;10.50;10.25;;;;;;;;5016801;28;51301;-62
2022/04/09 09:36:54;;;;;;;;;11.25;9.50;;;;;;;;5003671;28;53087;-63
2022/04/09 09:39:20;;;;;;;;;9.25;9.25;;;;;;;;5011342;28;50981;-63
2022/04/09 09:42:02;;;;;;;;;12.00;11.25;;;;;;;;5011432;28;51184;-62
2022/04/09 09:44:31;;;;;;;;;10.25;8.75;;;;;;;;5004612;28;52143;-63
2022/04/09 09:47:04;;;;;;;;;9.00;9.00;;;;;;;;5011748;28;51899;-63
2022/04/09 09:49:35;;;;;;;;;15.00;15.00;;;;;;;;5002707;28;51253;-63
2022/04/09 09:52:02;;;;;;;;;12.25;10.50;;;;;;;;5017200;28;51123;-62
2022/04/09 09:54:27;;;;;;;;;11.00;11.00;;;;;;;;5011490;28;50992;-63
2022/04/09 09:56:53;;;;;;;;;12.00;12.00;;;;;;;;4997375;28;51753;-65
2022/04/09 09:59:18;;;;;;;;;10.50;10.50;;;;;;;;5013113;28;51261;-62
2022/04/09 10:01:47;;;;;;;;;11.75;11.75;;;;;;;;5010666;28;51045;-62
2022/04/09 10:04:12;;;;;;;;;10.00;9.75;;;;;;;;5010836;28;50878;-62
2022/04/09 10:06:38;;;;;;;;;16.50;15.50;;;;;;;;5006246;28;51711;-63
2022/04/09 10:09:07;;;;;;;;;9.00;8.25;;;;;;;;5007842;28;51230;-64
2022/04/09 10:11:36;;;;;;;;;13.00;12.00;;;;;;;;5010423;28;51048;-64
2022/04/09 10:14:03;;;;;;;;;13.00;11.25;;;;;;;;5005998;28;51214;-63
2022/04/09 10:16:30;;;;;;;;;10.00;9.00;;;;;;;;5008881;28;51931;-63
2022/04/09 10:19:00;;;;;;;;;10.00;10.00;;;;;;;;5008956;28;51154;-63
2022/04/09 10:21:26;;;;;;;;;12.75;12.75;;;;;;;;5002665;28;52048;-62
2022/04/09 10:23:52;;;;;;;;;12.50;11.75;;;;;;;;5002296;28;51082;-63
2022/04/09 10:26:17;;;;;;;;;10.75;10.75;;;;;;;;5010693;28;51710;-62
2022/04/09 10:28:44;;;;;;;;;12.75;11.00;;;;;;;;5011104;28;52750;-62
2022/04/09 10:31:22;;;;;;;;;18.25;16.75;;;;;;;;5003474;28;55118;-64
2022/04/09 10:33:55;;;;;;;;;9.75;9.75;;;;;;;;5008714;28;50998;-65
2022/04/09 10:36:39;;;;;;;;;10.25;9.00;;;;;;;;4995000;28;52932;-66
2022/04/09 10:39:23;;;;;;;;;11.25;10.25;;;;;;;;5018295;28;50932;-65
2022/04/09 10:41:49;;;;;;;;;15.25;14.00;;;;;;;;5000693;28;51270;-64
2022/04/09 10:44:34;;;;;;;;;10.50;10.25;;;;;;;;5006957;28;51143;-66
2022/04/09 10:47:01;;;;;;;;;12.00;12.00;;;;;;;;4995957;28;52905;-68
2022/04/09 10:49:28;;;;;;;;;9.50;9.00;;;;;;;;5008712;28;51133;-66
2022/04/09 10:51:57;;;;;;;;;14.25;14.25;;;;;;;;5004394;28;51350;-67
2022/04/09 10:54:22;;;;;;;;;14.50;13.25;;;;;;;;5001552;28;51319;-67
2022/04/09 10:56:48;;;;;;;;;12.50;11.75;;;;;;;;5002509;28;51753;-67
2022/04/09 10:59:13;;;;;;;;;9.00;9.00;;;;;;;;5000281;28;51168;-67
2022/04/09 11:01:51;;;;;;;;;12.00;12.00;;;;;;;;5001134;28;51776;-67
2022/04/09 11:04:28;;;;;;;;;12.75;12.75;;;;;;;;4999134;28;51122;-67
2022/04/09 11:07:06;;;;;;;;;13.75;13.50;;;;;;;;5001008;28;52671;-67
2022/04/09 11:09:48;;;;;;;;;14.00;13.00;;;;;;;;5000528;28;53115;-67
2022/04/09 11:12:15;;;;;;;;;14.50;12.25;;;;;;;;5003382;28;51100;-69
2022/04/09 11:14:48;;;;;;;;;13.50;13.00;;;;;;;;5000265;28;51648;-68
2022/04/09 11:17:15;;;;;;;;;10.75;10.75;;;;;;;;5005542;28;52933;-68
2022/04/09 11:19:41;;;;;;;;;9.50;9.00;;;;;;;;5010151;28;51119;-67
2022/04/09 11:22:08;;;;;;;;;9.75;9.75;;;;;;;;5003939;28;51675;-68
2022/04/09 11:24:37;;;;;;;;;10.00;10.00;;;;;;;;5019267;28;51140;-68
2022/04/09 11:27:02;;;;;;;;;13.50;13.50;;;;;;;;5006814;28;51206;-67
2022/04/09 11:29:34;;;;;;;;;13.25;11.00;;;;;;;;4995939;28;52555;-66
2022/04/09 11:32:00;;;;;;;;;13.50;13.00;;;;;;;;4990120;28;51069;-67
2022/04/09 11:34:27;;;;;;;;;32.00;30.50;;;;;;;;5006509;28;51274;-67
2022/04/09 11:37:07;;;;;;;;;10.50;10.50;;;;;;;;5011420;28;51191;-68
2022/04/09 11:39:37;;;;;;;;;13.00;12.25;;;;;;;;5012257;28;50981;-67
2022/04/09 11:42:02;;;;;;;;;12.75;12.00;;;;;;;;5012147;28;51285;-67
2022/04/09 11:44:28;;;;;;;;;17.50;16.50;;;;;;;;5013442;28;51061;-67
2022/04/09 11:46:53;;;;;;;;;17.00;15.00;;;;;;;;5012157;28;53249;-67
2022/04/09 11:49:19;;;;;;;;;15.25;13.75;;;;;;;;5011760;28;51108;-69
2022/04/09 11:51:56;;;;;;;;;11.50;11.25;;;;;;;;5016039;28;51358;-68
2022/04/09 11:54:21;;;;;;;;;17.50;17.00;;;;;;;;5019399;28;51251;-67
2022/04/09 11:56:46;;;;;;;;;16.00;16.00;;;;;;;;5002930;28;51783;-68
2022/04/09 11:59:13;;;;;;;;;14.00;13.75;;;;;;;;5002480;28;51271;-66
2022/04/09 12:01:38;;;;;;;;;16.50;16.00;;;;;;;;5012537;28;51074;-68
2022/04/09 12:04:04;;;;;;;;;18.00;17.50;;;;;;;;5015416;28;51364;-68
2022/04/09 12:06:29;;;;;;;;;19.00;18.00;;;;;;;;5010586;28;51048;-67
2022/04/09 12:08:55;;;;;;;;;16.25;16.25;;;;;;;;5012237;28;51205;-67
2022/04/09 12:11:20;;;;;;;;;15.75;15.50;;;;;;;;5017361;28;51135;-67
2022/04/09 12:13:46;;;;;;;;;19.00;18.50;;;;;;;;5010416;28;51247;-67
2022/04/09 12:16:18;;;;;;;;;11.75;11.75;;;;;;;;5013209;28;51653;-67
2022/04/09 12:18:44;;;;;;;;;12.00;12.00;;;;;;;;5019510;28;51037;-68
2022/04/09 12:21:17;;;;;;;;;11.75;11.75;;;;;;;;5000543;28;51097;-67
2022/04/09 12:23:42;;;;;;;;;11.50;11.25;;;;;;;;5013646;28;51288;-66
2022/04/09 12:26:20;;;;;;;;;14.50;13.00;;;;;;;;5013017;28;50984;-67
2022/04/09 12:28:45;;;;;;;;;13.00;11.75;;;;;;;;5011976;28;51155;-66
2022/04/09 12:31:23;;;;;;;;;16.50;14.50;;;;;;;;5012817;28;51135;-67
2022/04/09 12:33:58;;;;;;;;;19.75;19.00;;;;;;;;5013192;28;51353;-67
2022/04/09 12:36:23;;;;;;;;;11.00;11.00;;;;;;;;5012428;28;51845;-67
2022/04/09 12:38:48;;;;;;;;;12.75;12.50;;;;;;;;5012753;28;50929;-68
2022/04/09 12:41:17;;;;;;;;;13.25;12.25;;;;;;;;5008462;28;51108;-67
2022/04/09 12:43:43;;;;;;;;;14.00;14.00;;;;;;;;5013407;28;51622;-67
2022/04/09 12:46:11;;;;;;;;;12.50;12.50;;;;;;;;5012465;28;51767;-67
2022/04/09 12:48:40;;;;;;;;;13.25;12.25;;;;;;;;5012642;28;51164;-67
2022/04/09 12:51:06;;;;;;;;;20.25;20.25;;;;;;;;5012457;28;51310;-67
2022/04/09 12:53:31;;;;;;;;;12.75;12.50;;;;;;;;5012728;28;51033;-67
2022/04/09 12:55:56;;;;;;;;;12.25;12.00;;;;;;;;5012364;28;52226;-67
2022/04/09 12:58:21;;;;;;;;;11.25;11.25;;;;;;;;5012685;28;51006;-67
2022/04/09 13:00:47;;;;;;;;;11.00;10.50;;;;;;;;5011381;28;51083;-67
2022/04/09 13:03:13;;;;;;;;;10.50;10.25;;;;;;;;5012696;28;50872;-69
2022/04/09 13:05:38;;;;;;;;;12.00;12.00;;;;;;;;5012741;28;51893;-68
2022/04/09 13:08:03;;;;;;;;;12.00;11.25;;;;;;;;5012262;28;51345;-67
2022/04/09 13:10:29;;;;;;;;;13.50;12.75;;;;;;;;5010521;28;51569;-67
2022/04/09 13:12:54;;;;;;;;;10.00;10.00;;;;;;;;5007881;28;50997;-67
2022/04/09 13:15:19;;;;;;;;;12.25;11.50;;;;;;;;5002898;28;51012;-67
2022/04/09 13:17:45;;;;;;;;;10.75;9.75;;;;;;;;5012086;28;50946;-67
2022/04/09 13:20:11;;;;;;;;;10.00;10.00;;;;;;;;5010982;28;51341;-67
2022/04/09 13:22:36;;;;;;;;;10.00;10.00;;;;;;;;5012644;28;50895;-66
2022/04/09 13:25:03;;;;;;;;;8.25;8.25;;;;;;;;5011731;28;51123;-67
2022/04/09 13:27:28;;;;;;;;;13.25;11.75;;;;;;;;5011025;28;51138;-67
2022/04/09 13:29:54;;;;;;;;;10.50;10.50;;;;;;;;5005220;28;51897;-68
2022/04/09 13:32:19;;;;;;;;;11.50;10.00;;;;;;;;5011935;28;51101;-69
2022/04/09 13:34:47;;;;;;;;;10.50;10.00;;;;;;;;5011712;28;51072;-66
2022/04/09 13:37:13;;;;;;;;;12.00;12.00;;;;;;;;5009530;28;51039;-67
2022/04/09 13:39:38;;;;;;;;;8.25;8.25;;;;;;;;5011543;28;51170;-67
2022/04/09 13:42:04;;;;;;;;;12.25;10.75;;;;;;;;5011914;28;51418;-68
2022/04/09 13:44:29;;;;;;;;;10.50;10.50;;;;;;;;5010983;28;51787;-68
2022/04/09 13:46:57;;;;;;;;;8.50;8.50;;;;;;;;5011164;28;51251;-68
2022/04/09 13:49:22;;;;;;;;;9.25;8.00;;;;;;;;5007217;28;51125;-67
2022/04/09 13:51:48;;;;;;;;;7.75;7.00;;;;;;;;5011457;28;51115;-67
2022/04/09 13:54:13;;;;;;;;;4.00;4.00;;;;;;;;5011108;28;51109;-67
2022/04/09 13:56:39;;;;;;;;;9.75;9.00;;;;;;;;5010716;28;50971;-67
2022/04/09 13:59:04;;;;;;;;;9.00;9.00;;;;;;;;5011703;28;50952;-67
2022/04/09 14:01:30;;;;;;;;;13.00;12.25;;;;;;;;5010089;28;50848;-67
2022/04/09 14:03:55;;;;;;;;;10.75;10.25;;;;;;;;5011598;28;51095;-67
2022/04/09 14:06:21;;;;;;;;;10.50;10.50;;;;;;;;5011338;28;51242;-67
2022/04/09 14:08:50;;;;;;;;;8.67;7.67;;;;;;;;5010976;28;50976;-67
2022/04/09 14:11:15;;;;;;;;;11.00;11.00;;;;;;;;5008967;28;51113;-68
2022/04/09 14:13:41;;;;;;;;;8.50;7.25;;;;;;;;5009646;28;51488;-66
2022/04/09 14:16:06;;;;;;;;;14.25;12.75;;;;;;;;5006531;28;51011;-67
2022/04/09 14:18:32;;;;;;;;;7.75;7.00;;;;;;;;5009312;28;51131;-67
2022/04/09 14:20:57;;;;;;;;;10.25;9.50;;;;;;;;5011237;28;50961;-68
2022/04/09 14:23:23;;;;;;;;;14.75;13.00;;;;;;;;5010788;28;51511;-67
2022/04/09 14:25:48;;;;;;;;;7.00;7.00;;;;;;;;5010848;28;51057;-66